Time;durP1;ratioP1;P1;durP2;ratioP2;P2;SDS_P1;SDS_P2;PMS_P1;PMS_P2;Temp;Humidity;BMP_temperature;BMP_pressure;BME280_temperature;BME280_humidity;BME280_pressure;Samples;Min_cycle;Max_cycle;Signal;HPM_P1;HPM_P2
2022/12/24 00:02:12;;;;;;;1.40;0.45;;;11.90;99.90;;;;;;5053423;28;20052;-74
2022/12/24 00:04:37;;;;;;;0.40;0.40;;;11.90;99.90;;;;;;5051718;28;20064;-73
2022/12/24 00:07:03;;;;;;;4.85;0.63;;;;;;;;;;5053096;28;20092;-74
2022/12/24 00:09:29;;;;;;;1.10;0.85;;;;;;;;;;5052968;28;20029;-73
2022/12/24 00:11:55;;;;;;;0.68;0.60;;;11.90;99.90;;;;;;5053291;28;20035;-74
2022/12/24 00:14:21;;;;;;;2.33;0.30;;;;;;;;;;5052794;28;20477;-73
2022/12/24 00:16:46;;;;;;;0.43;0.43;;;12.00;99.90;;;;;;5053070;28;20464;-74
2022/12/24 00:19:13;;;;;;;1.17;0.68;;;;;;;;;;5053210;28;20032;-73
2022/12/24 00:21:39;;;;;;;3.10;0.50;;;;;;;;;;5053006;28;20048;-74
2022/12/24 00:24:05;;;;;;;1.33;0.60;;;11.90;99.90;;;;;;5051596;28;20029;-73
2022/12/24 00:26:34;;;;;;;2.00;0.90;;;11.90;99.90;;;;;;5052801;28;20482;-73
2022/12/24 00:29:00;;;;;;;1.30;0.65;;;11.90;99.90;;;;;;5052534;28;20124;-74
2022/12/24 00:31:25;;;;;;;1.58;0.70;;;11.90;99.90;;;;;;5052876;28;20028;-74
2022/12/24 00:33:51;;;;;;;0.65;0.57;;;11.90;99.90;;;;;;5052826;28;20120;-73
2022/12/24 00:36:18;;;;;;;0.55;0.40;;;12.10;99.90;;;;;;5052814;28;20061;-75
2022/12/24 00:38:44;;;;;;;0.75;0.40;;;;;;;;;;5052539;28;20052;-74
2022/12/24 00:41:23;;;;;;;0.45;0.45;;;13.20;99.90;;;;;;5051218;28;20462;-74
2022/12/24 00:43:57;;;;;;;1.35;0.57;;;11.90;99.90;;;;;;5052188;28;20044;-74
2022/12/24 00:46:24;;;;;;;1.02;0.90;;;12.00;99.90;;;;;;5052352;28;20500;-73
2022/12/24 00:48:50;;;;;;;1.13;0.57;;;;;;;;;;5050818;28;20029;-74
2022/12/24 00:51:16;;;;;;;0.40;0.40;;;;;;;;;;5051032;28;20378;-73
2022/12/24 00:53:42;;;;;;;1.17;1.02;;;11.90;99.90;;;;;;5052378;28;20485;-73
2022/12/24 00:56:08;;;;;;;2.05;0.55;;;;;;;;;;5052434;28;20063;-74
2022/12/24 00:58:34;;;;;;;1.02;0.60;;;;;;;;;;5052013;28;20105;-75
2022/12/24 01:01:00;;;;;;;0.70;0.70;;;11.70;99.90;;;;;;5052310;28;20059;-74
2022/12/24 01:03:35;;;;;;;0.35;0.32;;;11.60;99.90;;;;;;5050994;28;20052;-74
2022/12/24 01:06:06;;;;;;;0.63;0.63;;;;;;;;;;5052135;28;20221;-74
2022/12/24 01:08:32;;;;;;;1.60;0.60;;;11.60;99.90;;;;;;5051818;28;20032;-73
2022/12/24 01:10:58;;;;;;;1.75;0.60;;;11.60;99.90;;;;;;5052250;28;20032;-74
2022/12/24 01:13:24;;;;;;;3.10;0.98;;;;;;;;;;5051920;28;20028;-75
2022/12/24 01:15:50;;;;;;;3.75;0.63;;;11.60;99.90;;;;;;5050470;28;20021;-74
2022/12/24 01:18:16;;;;;;;5.97;0.85;;;11.60;99.90;;;;;;5050268;28;20054;-74
2022/12/24 01:20:42;;;;;;;0.93;0.93;;;11.50;99.90;;;;;;5051792;28;20095;-74
2022/12/24 01:23:08;;;;;;;3.60;0.75;;;;;;;;;;5051828;28;20021;-73
2022/12/24 01:25:34;;;;;;;3.38;1.23;;;;;;;;;;5051818;28;20531;-73
2022/12/24 01:27:59;;;;;;;1.38;0.50;;;11.50;99.90;;;;;;5051971;28;20020;-73
2022/12/24 01:30:25;;;;;;;3.05;1.08;;;11.50;99.90;;;;;;5053592;28;20083;-74
2022/12/24 01:32:51;;;;;;;2.25;1.40;;;;;;;;;;5051746;28;20195;-75
2022/12/24 01:35:17;;;;;;;2.50;0.77;;;11.60;99.90;;;;;;5051229;28;20028;-76
2022/12/24 01:37:43;;;;;;;2.47;0.60;;;;;;;;;;5050046;28;20041;-76
2022/12/24 01:45:45;;;;;;;0.80;0.80;;;;;;;;;;5051348;28;20036;-76
2022/12/24 01:48:36;;;;;;;0.77;0.70;;;11.30;99.90;;;;;;5051302;28;20049;-77
2022/12/24 01:51:23;;;;;;;0.85;0.60;;;11.40;99.90;;;;;;5044019;28;20045;-77
2022/12/24 01:54:02;;;;;;;4.43;1.13;;;11.40;99.90;;;;;;5050059;28;20100;-76
2022/12/24 01:56:29;;;;;;;1.20;0.65;;;11.50;99.90;;;;;;5050057;28;20362;-76
2022/12/24 01:58:57;;;;;;;1.38;0.65;;;;;;;;;;5051274;28;20020;-75
2022/12/24 02:01:23;;;;;;;2.35;1.40;;;;;;;;;;5049742;28;20047;-76
2022/12/24 02:03:49;;;;;;;2.10;0.95;;;;;;;;;;5049556;28;20482;-76
2022/12/24 02:06:16;;;;;;;0.52;0.52;;;;;;;;;;5050862;28;20040;-76
2022/12/24 02:08:42;;;;;;;1.33;0.63;;;;;;;;;;5051116;28;20051;-76
2022/12/24 02:11:20;;;;;;;1.50;0.60;;;11.40;99.90;;;;;;5049708;28;20029;-76
2022/12/24 02:13:50;;;;;;;1.20;0.93;;;11.30;99.90;;;;;;5049394;28;20032;-76
2022/12/24 02:16:34;;;;;;;4.05;1.27;;;11.30;99.90;;;;;;5050974;28;20187;-76
2022/12/24 02:19:27;;;;;;;0.70;0.70;;;11.40;99.90;;;;;;5051315;28;20052;-76
2022/12/24 02:22:08;;;;;;;6.95;0.90;;;11.30;99.90;;;;;;5049352;28;20049;-76
2022/12/24 02:24:45;;;;;;;3.13;0.68;;;11.20;99.90;;;;;;5050648;28;20028;-76
2022/12/24 02:27:24;;;;;;;1.30;0.77;;;12.80;99.90;;;;;;5050602;28;20035;-76
2022/12/24 02:30:10;;;;;;;5.80;1.42;;;11.50;99.90;;;;;;5050489;28;20041;-74
2022/12/24 02:32:36;;;;;;;4.30;0.60;;;11.40;99.90;;;;;;5050826;28;20106;-76
2022/12/24 02:35:19;;;;;;;2.42;1.05;;;11.50;99.90;;;;;;5050494;28;20037;-76
2022/12/24 02:37:52;;;;;;;8.25;1.50;;;11.30;99.90;;;;;;5050105;28;20045;-74
2022/12/24 02:40:32;;;;;;;7.07;1.60;;;11.20;99.90;;;;;;5050388;28;20056;-75
2022/12/24 02:43:02;;;;;;;7.10;0.90;;;11.30;99.90;;;;;;5050334;28;20017;-74
2022/12/24 02:45:31;;;;;;;2.88;1.33;;;11.10;99.90;;;;;;5050274;28;20039;-76
2022/12/24 02:47:57;;;;;;;2.47;0.85;;;11.30;99.90;;;;;;5050560;28;20567;-74
2022/12/24 02:50:23;;;;;;;2.38;1.42;;;11.40;99.90;;;;;;5050223;28;20082;-76
2022/12/24 02:52:49;;;;;;;4.20;1.48;;;11.40;99.90;;;;;;5050355;28;20465;-76
2022/12/24 02:55:15;;;;;;;4.63;1.45;;;;;;;;;;5050292;28;20039;-76
2022/12/24 02:58:13;;;;;;;7.45;1.45;;;11.20;99.90;;;;;;5049969;28;20100;-75
2022/12/24 03:01:17;;;;;;;5.47;0.95;;;11.20;99.90;;;;;;5045810;28;20540;-75
2022/12/24 03:04:04;;;;;;;5.05;1.02;;;11.10;99.90;;;;;;5049959;28;20052;-76
2022/12/24 03:06:53;;;;;;;4.78;1.23;;;11.20;99.90;;;;;;5048699;28;20047;-76
2022/12/24 03:09:27;;;;;;;1.35;1.20;;;11.10;99.90;;;;;;5050001;28;20037;-76
2022/12/24 03:12:11;;;;;;;4.43;1.50;;;11.20;99.90;;;;;;5048655;28;20025;-75
2022/12/24 03:14:39;;;;;;;4.95;1.38;;;11.30;99.90;;;;;;5049412;28;20123;-77
2022/12/24 03:17:06;;;;;;;6.80;2.30;;;11.00;99.90;;;;;;5048267;28;20036;-76
2022/12/24 03:19:33;;;;;;;2.90;2.05;;;10.80;99.90;;;;;;5049717;28;20021;-76
2022/12/24 03:22:01;;;;;;;5.70;1.83;;;10.70;99.90;;;;;;5049926;28;20024;-76
2022/12/24 03:24:27;;;;;;;2.95;1.10;;;;;;;;;;5049646;28;20509;-76
2022/12/24 03:26:53;;;;;;;2.30;1.25;;;10.50;99.90;;;;;;5048851;28;20025;-76
2022/12/24 03:29:19;;;;;;;3.65;1.05;;;10.40;99.90;;;;;;5049316;28;20041;-78
2022/12/24 03:31:51;;;;;;;3.92;1.65;;;10.50;99.90;;;;;;5048205;28;20036;-76
2022/12/24 03:34:17;;;;;;;5.15;1.90;;;9.90;99.90;;;;;;5049623;28;20518;-74
2022/12/24 03:36:45;;;;;;;8.68;2.28;;;10.50;99.90;;;;;;5049792;28;20112;-76
2022/12/24 03:39:11;;;;;;;3.95;0.93;;;;;;;;;;5047880;28;20097;-73
2022/12/24 03:41:38;;;;;;;6.13;1.00;;;10.60;99.90;;;;;;5049031;28;20029;-73
2022/12/24 03:44:03;;;;;;;3.83;0.95;;;10.90;99.90;;;;;;5049229;28;20589;-73
2022/12/24 03:46:29;;;;;;;2.08;0.70;;;10.40;99.90;;;;;;5049447;28;20272;-73
2022/12/24 03:48:55;;;;;;;1.45;0.70;;;10.80;99.90;;;;;;5048044;28;20021;-74
2022/12/24 03:51:23;;;;;;;2.65;0.90;;;10.50;99.90;;;;;;5049420;28;20029;-73
2022/12/24 03:53:49;;;;;;;3.38;1.30;;;;;;;;;;5049241;28;20021;-73
2022/12/24 03:56:15;;;;;;;8.10;0.93;;;10.50;99.90;;;;;;5049123;28;20112;-75
2022/12/24 03:58:40;;;;;;;2.88;1.27;;;10.30;99.90;;;;;;5049261;28;20549;-73
2022/12/24 04:01:06;;;;;;;2.63;1.20;;;10.40;99.90;;;;;;5049199;28;20029;-75
2022/12/24 04:03:31;;;;;;;13.63;1.25;;;10.40;99.90;;;;;;5047745;28;20047;-73
2022/12/24 04:06:02;;;;;;;2.95;1.45;;;;;;;;;;5049290;28;20401;-73
2022/12/24 04:08:28;;;;;;;4.95;1.15;;;;;;;;;;5049160;28;20217;-73
2022/12/24 04:10:53;;;;;;;2.28;1.33;;;10.50;99.90;;;;;;5047517;28;20523;-74
2022/12/24 04:13:19;;;;;;;8.25;1.70;;;10.60;99.90;;;;;;5048817;28;20021;-73
2022/12/24 04:15:45;;;;;;;8.50;1.30;;;10.70;99.90;;;;;;5049275;28;20033;-74
2022/12/24 04:18:10;;;;;;;8.00;1.52;;;10.80;99.90;;;;;;5049170;28;20048;-74
2022/12/24 04:20:36;;;;;;;6.38;0.98;;;;;;;;;;5049037;28;20070;-74
2022/12/24 04:23:02;;;;;;;1.77;1.30;;;10.70;99.90;;;;;;5049031;28;20024;-74
2022/12/24 04:25:28;;;;;;;5.60;0.80;;;10.70;99.90;;;;;;5048980;28;20032;-73
2022/12/24 04:27:54;;;;;;;4.30;1.13;;;;;;;;;;5047547;28;20029;-73
2022/12/24 04:30:19;;;;;;;3.75;1.40;;;10.70;99.90;;;;;;5048550;28;20037;-73
2022/12/24 04:32:45;;;;;;;3.30;1.25;;;10.80;99.90;;;;;;5049242;28;20021;-73
2022/12/24 04:35:12;;;;;;;3.88;0.77;;;11.00;99.90;;;;;;5048674;28;20053;-73
2022/12/24 04:37:37;;;;;;;2.33;1.08;;;10.90;99.90;;;;;;5049501;28;20493;-74
2022/12/24 04:40:03;;;;;;;1.08;1.05;;;10.90;99.90;;;;;;5052471;28;20119;-74
2022/12/24 04:42:29;;;;;;;1.10;0.77;;;;;;;;;;5052298;28;20048;-73
2022/12/24 04:44:55;;;;;;;3.50;0.65;;;10.80;99.90;;;;;;5052189;28;20426;-73
2022/12/24 04:47:21;;;;;;;6.65;0.82;;;;;;;;;;5052199;28;20108;-73
2022/12/24 04:49:46;;;;;;;4.38;0.88;;;10.80;99.90;;;;;;5050761;28;20083;-74
2022/12/24 04:52:12;;;;;;;2.60;0.50;;;10.80;99.90;;;;;;5052144;28;20060;-73
2022/12/24 04:54:38;;;;;;;2.88;1.15;;;10.90;99.90;;;;;;5050771;28;20029;-73
2022/12/24 04:57:03;;;;;;;4.03;1.05;;;10.90;99.90;;;;;;5051564;28;20025;-74
2022/12/24 04:59:29;;;;;;;3.90;0.70;;;10.90;99.90;;;;;;5050445;28;20028;-73
2022/12/24 05:01:54;;;;;;;5.85;2.13;;;10.80;99.90;;;;;;5050249;28;20028;-73
2022/12/24 05:04:20;;;;;;;4.85;0.95;;;10.80;99.90;;;;;;5050367;28;20435;-73
2022/12/24 05:06:46;;;;;;;1.60;0.70;;;10.80;99.90;;;;;;5050168;28;20071;-74
2022/12/24 05:09:11;;;;;;;3.50;1.40;;;10.70;99.90;;;;;;5048778;28;20037;-75
2022/12/24 05:11:37;;;;;;;6.88;1.13;;;10.50;99.90;;;;;;5050302;28;20398;-73
2022/12/24 05:14:03;;;;;;;3.72;0.60;;;10.60;99.90;;;;;;5049764;28;20085;-73
2022/12/24 05:16:29;;;;;;;2.30;1.70;;;;;;;;;;5050413;28;20021;-72
2022/12/24 05:18:54;;;;;;;2.65;0.82;;;10.50;99.90;;;;;;5049941;28;20048;-74
2022/12/24 05:21:22;;;;;;;1.77;1.08;;;10.40;99.90;;;;;;5050603;28;20517;-73
2022/12/24 05:26:44;;;;;;;1.58;0.98;;;10.30;99.90;;;;;;5051737;28;20036;-73
2022/12/24 05:29:11;;;;;;;1.85;0.73;;;10.30;99.90;;;;;;5051128;28;20025;-73
2022/12/24 05:31:39;;;;;;;4.65;0.85;;;;;;;;;;5051449;28;20513;-73
2022/12/24 05:34:05;;;;;;;4.85;1.70;;;10.30;99.90;;;;;;5051433;28;20112;-73
2022/12/24 05:36:31;;;;;;;3.22;0.90;;;;;;;;;;5051673;28;20043;-73
2022/12/24 05:38:57;;;;;;;4.22;1.40;;;;;;;;;;5051375;28;20056;-74
2022/12/24 05:41:24;;;;;;;4.05;0.95;;;10.20;99.90;;;;;;5051460;28;20055;-74
2022/12/24 05:43:50;;;;;;;4.97;1.58;;;10.60;99.90;;;;;;5050175;28;20413;-74
2022/12/24 05:46:17;;;;;;;1.23;0.70;;;10.80;99.90;;;;;;5051463;28;20052;-74
2022/12/24 05:48:43;;;;;;;3.20;1.05;;;10.50;99.90;;;;;;5051056;28;20422;-75
2022/12/24 05:51:10;;;;;;;1.80;1.33;;;;;;;;;;5050570;28;20056;-73
2022/12/24 05:53:36;;;;;;;3.75;0.88;;;10.60;99.90;;;;;;5049789;28;20025;-74
2022/12/24 05:56:08;;;;;;;4.22;1.90;;;10.60;99.90;;;;;;5051682;28;20108;-74
2022/12/24 05:58:34;;;;;;;7.00;2.42;;;10.60;99.90;;;;;;5049507;28;20083;-72
2022/12/24 06:01:01;;;;;;;1.17;1.08;;;10.50;99.90;;;;;;5051192;28;20025;-74
2022/12/24 06:03:27;;;;;;;2.28;0.73;;;10.50;99.90;;;;;;5051150;28;20130;-74
2022/12/24 06:06:07;;;;;;;7.90;1.35;;;10.50;99.90;;;;;;5050819;28;20063;-75
2022/12/24 06:08:34;;;;;;;6.95;1.95;;;10.40;99.90;;;;;;5049417;28;20419;-74
2022/12/24 06:11:04;;;;;;;9.02;0.93;;;8.50;99.90;;;;;;5050595;28;20409;-76
2022/12/24 06:13:31;;;;;;;8.20;2.10;;;10.30;99.90;;;;;;5051020;28;20025;-74
2022/12/24 06:15:59;;;;;;;1.23;1.13;;;10.50;99.90;;;;;;5050767;28;20102;-73
2022/12/24 06:18:25;;;;;;;4.25;1.10;;;10.50;99.90;;;;;;5051006;28;20365;-74
2022/12/24 06:20:52;;;;;;;4.53;1.35;;;10.50;99.90;;;;;;5051171;28;20068;-74
2022/12/24 06:23:18;;;;;;;3.45;0.95;;;;;;;;;;5050892;28;20021;-74
2022/12/24 06:25:43;;;;;;;2.40;1.10;;;10.40;99.90;;;;;;5050629;28;20454;-75
2022/12/24 06:28:09;;;;;;;2.33;0.90;;;;;;;;;;5048931;28;20028;-73
2022/12/24 06:30:35;;;;;;;9.40;1.63;;;10.30;99.90;;;;;;5050497;28;20041;-74
2022/12/24 06:33:01;;;;;;;3.55;1.02;;;10.50;99.90;;;;;;5050358;28;20032;-74
2022/12/24 06:35:26;;;;;;;2.30;1.13;;;;;;;;;;5050336;28;20033;-73
2022/12/24 06:37:52;;;;;;;4.28;1.33;;;;;;;;;;5050191;28;20045;-74
2022/12/24 06:40:18;;;;;;;5.97;1.60;;;10.30;99.90;;;;;;5050356;28;20508;-73
2022/12/24 06:42:44;;;;;;;2.83;1.00;;;;;;;;;;5050131;28;20098;-73
2022/12/24 06:45:10;;;;;;;4.78;1.13;;;10.50;99.90;;;;;;5049963;28;20472;-73
2022/12/24 06:47:36;;;;;;;5.25;1.30;;;;;;;;;;5050036;28;20099;-74
2022/12/24 06:50:02;;;;;;;6.85;1.33;;;;;;;;;;5050066;28;20417;-74
2022/12/24 06:52:28;;;;;;;3.08;0.73;;;;;;;;;;5050075;28;20051;-74
2022/12/24 06:54:54;;;;;;;2.72;0.57;;;10.60;99.90;;;;;;5050107;28;20152;-73
2022/12/24 06:57:19;;;;;;;1.65;1.05;;;10.60;99.90;;;;;;5049949;28;20466;-73
2022/12/24 06:59:46;;;;;;;1.98;0.57;;;;;;;;;;5049955;28;20028;-73
2022/12/24 07:02:12;;;;;;;2.45;0.63;;;;;;;;;;5049892;28;20056;-73
2022/12/24 07:04:37;;;;;;;3.17;0.77;;;10.60;99.90;;;;;;5048603;28;20067;-73
2022/12/24 07:07:03;;;;;;;3.88;1.13;;;10.70;99.90;;;;;;5049827;28;20480;-73
2022/12/24 07:09:29;;;;;;;2.50;0.60;;;;;;;;;;5049532;28;20045;-73
2022/12/24 07:11:55;;;;;;;2.85;1.08;;;;;;;;;;5048233;28;20541;-75
2022/12/24 07:14:21;;;;;;;4.38;0.65;;;;;;;;;;5048062;28;20202;-74
2022/12/24 07:16:46;;;;;;;0.52;0.45;;;10.70;99.90;;;;;;5049619;28;20029;-73
2022/12/24 07:19:12;;;;;;;3.50;0.38;;;10.40;99.90;;;;;;5049996;28;20067;-74
2022/12/24 07:21:38;;;;;;;3.03;0.82;;;;;;;;;;5049714;28;20091;-74
2022/12/24 07:24:04;;;;;;;6.18;0.32;;;10.60;99.90;;;;;;5049574;28;20025;-73
2022/12/24 07:26:30;;;;;;;2.17;0.40;;;10.60;99.90;;;;;;5049509;28;20477;-73
2022/12/24 07:28:56;;;;;;;2.08;0.30;;;;;;;;;;5049045;28;20448;-74
2022/12/24 07:31:22;;;;;;;1.88;0.30;;;;;;;;;;5050611;28;20074;-73
2022/12/24 07:33:49;;;;;;;0.60;0.60;;;;;;;;;;5049147;28;20025;-73
2022/12/24 07:36:18;;;;;;;2.40;0.60;;;;;;;;;;5048214;28;20028;-73
2022/12/24 07:38:44;;;;;;;3.17;0.93;;;;;;;;;;5047755;28;20045;-73
2022/12/24 07:41:09;;;;;;;1.35;1.00;;;10.40;99.90;;;;;;5048152;28;20385;-73
2022/12/24 07:43:35;;;;;;;4.55;0.88;;;;;;;;;;5049789;28;20029;-73
2022/12/24 07:46:02;;;;;;;4.95;2.08;;;;;;;;;;5055185;28;20394;-73
2022/12/24 07:48:28;;;;;;;0.50;0.50;;;;;;;;;;5057262;28;20060;-74
2022/12/24 07:50:55;;;;;;;7.82;0.95;;;;;;;;;;5059095;28;20033;-73
2022/12/24 07:53:21;;;;;;;1.23;0.50;;;10.30;99.90;;;;;;5059327;28;20273;-73
2022/12/24 07:55:47;;;;;;;1.55;0.43;;;;;;;;;;5059965;28;20031;-74
2022/12/24 07:58:12;;;;;;;1.45;0.40;;;10.50;99.90;;;;;;5057467;28;20081;-73
2022/12/24 08:00:38;;;;;;;2.10;0.40;;;;;;;;;;5057418;28;20017;-73
2022/12/24 08:03:04;;;;;;;0.68;0.60;;;;;;;;;;5060343;28;20023;-73
2022/12/24 08:05:35;;;;;;;1.17;1.00;;;10.50;99.90;;;;;;5060192;28;20041;-73
2022/12/24 08:08:01;;;;;;;2.78;0.32;;;;;;;;;;5059442;28;20024;-73
2022/12/24 08:10:27;;;;;;;0.80;0.60;;;;;;;;;;5056466;28;20059;-74
2022/12/24 08:12:53;;;;;;;3.63;0.65;;;;;;;;;;5059957;28;20093;-73
2022/12/24 08:15:19;;;;;;;1.45;1.10;;;;;;;;;;5063130;28;20044;-74
2022/12/24 08:17:44;;;;;;;8.45;1.13;;;10.20;99.90;;;;;;5064475;28;20253;-73
2022/12/24 08:20:11;;;;;;;0.20;0.20;;;10.30;99.90;;;;;;5061403;28;20024;-74
2022/12/24 08:22:37;;;;;;;3.85;0.22;;;;;;;;;;5053295;28;20106;-73
2022/12/24 08:25:03;;;;;;;0.90;0.55;;;;;;;;;;5060865;28;20029;-73
2022/12/24 08:27:28;;;;;;;2.78;0.40;;;10.40;99.90;;;;;;5059137;28;20104;-74
2022/12/24 08:29:54;;;;;;;2.45;1.08;;;;;;;;;;5056989;28;20063;-74
2022/12/24 08:32:20;;;;;;;6.00;0.38;;;;;;;;;;5055310;28;20021;-75
2022/12/24 08:34:46;;;;;;;8.68;0.43;;;;;;;;;;5054357;28;20031;-73
2022/12/24 08:37:12;;;;;;;0.65;0.25;;;10.50;99.90;;;;;;5055327;28;20055;-75
2022/12/24 08:39:38;;;;;;;1.02;0.57;;;10.60;99.90;;;;;;5055712;28;20037;-74
2022/12/24 08:42:03;;;;;;;0.30;0.30;;;10.60;99.90;;;;;;5063473;28;20024;-74
2022/12/24 08:44:29;;;;;;;1.90;0.98;;;;;;;;;;5061390;28;20056;-74
2022/12/24 08:46:55;;;;;;;0.20;0.20;;;10.60;99.90;;;;;;5063383;28;20244;-74
2022/12/24 08:49:21;;;;;;;0.80;0.28;;;;;;;;;;5064182;28;20029;-73
2022/12/24 08:51:47;;;;;;;2.13;0.57;;;10.80;99.90;;;;;;5059329;28;20090;-74
2022/12/24 08:54:13;;;;;;;0.70;0.70;;;10.70;99.90;;;;;;5057551;28;20027;-75
2022/12/24 08:56:39;;;;;;;1.20;0.60;;;10.70;99.90;;;;;;5045776;28;20052;-76
2022/12/24 08:59:05;;;;;;;9.80;1.40;;;;;;;;;;5042252;28;20025;-75
2022/12/24 09:01:31;;;;;;;5.35;0.80;;;;;;;;;;5048179;28;20043;-76
2022/12/24 09:03:57;;;;;;;2.13;0.60;;;;;;;;;;5057800;28;20021;-76
2022/12/24 09:06:23;;;;;;;0.52;0.52;;;;;;;;;;5061752;28;20039;-75
2022/12/24 09:08:49;;;;;;;3.60;0.57;;;;;;;;;;5061569;28;20005;-76
2022/12/24 09:11:17;;;;;;;0.20;0.20;;;;;;;;;;5053883;28;20270;-75
2022/12/24 09:13:43;;;;;;;0.20;0.20;;;;;;;;;;5067964;28;20020;-74
2022/12/24 09:16:10;;;;;;;2.75;0.32;;;;;;;;;;5059403;28;20099;-76
2022/12/24 09:18:39;;;;;;;0.28;0.28;;;;;;;;;;5059035;28;20017;-75
2022/12/24 09:21:13;;;;;;;0.98;0.50;;;11.80;99.90;;;;;;5051559;28;20101;-75
2022/12/24 09:23:41;;;;;;;1.80;0.60;;;10.90;99.90;;;;;;5054587;28;20313;-74
2022/12/24 09:26:09;;;;;;;0.35;0.32;;;10.90;99.90;;;;;;5050477;28;20313;-74
2022/12/24 09:28:35;;;;;;;2.20;1.48;;;10.90;99.90;;;;;;5059622;28;20055;-74
2022/12/24 09:31:03;;;;;;;0.50;0.20;;;10.90;99.90;;;;;;5059947;28;20040;-74
2022/12/24 09:33:32;;;;;;;0.22;0.22;;;10.90;99.90;;;;;;5059786;28;20017;-73
2022/12/24 09:35:58;;;;;;;;;;;10.90;99.90;;;;;;5059252;28;20029;-73
2022/12/24 09:38:24;;;;;;;0.40;0.40;;;10.90;99.90;;;;;;5059271;28;19987;-74
2022/12/24 09:40:50;;;;;;;2.38;0.30;;;;;;;;;;5059248;28;20088;-74
2022/12/24 09:43:22;;;;;;;0.75;0.32;;;11.00;99.90;;;;;;5058319;28;20028;-75
2022/12/24 09:46:03;;;;;;;0.15;0.15;;;11.30;99.90;;;;;;5059282;28;20071;-75
2022/12/24 09:48:31;;;;;;;3.17;0.70;;;11.00;99.90;;;;;;5051348;28;20033;-74
2022/12/24 09:51:04;;;;;;;0.13;0.13;;;11.20;99.90;;;;;;5057802;28;20032;-73
2022/12/24 09:53:49;;;;;;;0.20;0.20;;;11.30;99.90;;;;;;5058570;28;20025;-74
2022/12/24 09:56:20;;;;;;;0.20;0.20;;;11.20;99.90;;;;;;5072589;28;20029;-74
2022/12/24 09:58:55;;;;;;;1.10;0.30;;;11.40;99.90;;;;;;5058126;28;20023;-74
2022/12/24 10:01:21;;;;;;;1.75;0.20;;;;;;;;;;5059016;28;20032;-74
2022/12/24 10:03:47;;;;;;;1.23;0.20;;;;;;;;;;5040232;28;20132;-74
2022/12/24 10:06:35;;;;;;;0.77;0.20;;;11.60;99.90;;;;;;5037315;28;20021;-74
2022/12/24 10:09:21;;;;;;;0.95;0.40;;;11.80;99.90;;;;;;5039244;28;20032;-74
2022/12/24 10:11:47;;;;;;;1.73;0.77;;;;;;;;;;5039459;28;20021;-74
2022/12/24 10:14:22;;;;;;;1.52;1.02;;;;;;;;;;5039812;28;20063;-74
2022/12/24 10:16:48;;;;;;;0.65;0.15;;;;;;;;;;5041287;28;20389;-74
2022/12/24 10:19:28;;;;;;;0.13;0.13;;;11.70;99.90;;;;;;5041111;28;20028;-74
2022/12/24 10:22:05;;;;;;;0.90;0.30;;;;;;;;;;5048745;28;20032;-74
2022/12/24 10:24:47;;;;;;;0.20;0.20;;;11.80;99.90;;;;;;5049049;28;20020;-74
2022/12/24 10:27:14;;;;;;;0.20;0.20;;;11.70;99.90;;;;;;5050074;28;20017;-74
2022/12/24 10:29:47;;;;;;;4.00;1.15;;;12.10;99.90;;;;;;5047963;28;20700;-74
2022/12/24 10:32:27;;;;;;;3.30;0.38;;;12.30;99.90;;;;;;5049302;28;20083;-74
2022/12/24 10:35:01;;;;;;;1.40;0.35;;;12.10;99.90;;;;;;5048290;28;20329;-74
2022/12/24 10:37:28;;;;;;;1.45;0.30;;;12.20;99.90;;;;;;5046265;28;20028;-73
2022/12/24 10:39:55;;;;;;;0.38;0.28;;;;;;;;;;5048089;28;20161;-74
2022/12/24 10:42:25;;;;;;;0.30;0.30;;;12.30;99.90;;;;;;5046454;28;20045;-74
2022/12/24 10:44:56;;;;;;;0.30;0.30;;;12.40;99.90;;;;;;5046211;28;20025;-74
2022/12/24 10:47:23;;;;;;;0.43;0.35;;;12.40;99.90;;;;;;5045997;28;20021;-74
2022/12/24 10:50:09;;;;;;;0.45;0.28;;;12.40;99.90;;;;;;5045722;28;20036;-74
2022/12/24 10:52:37;;;;;;;0.20;0.20;;;12.30;99.90;;;;;;5045980;28;20018;-75
2022/12/24 10:55:19;;;;;;;2.50;0.22;;;12.30;99.90;;;;;;5036730;28;20112;-75
2022/12/24 10:57:55;;;;;;;0.45;0.17;;;12.20;99.90;;;;;;5026009;28;20025;-74
2022/12/24 11:00:22;;;;;;;0.45;0.32;;;;;;;;;;5025557;28;20042;-73
2022/12/24 11:02:56;;;;;;;0.45;0.40;;;12.20;99.90;;;;;;5026706;28;20033;-73
2022/12/24 11:05:33;;;;;;;3.35;0.40;;;12.10;99.90;;;;;;5027117;28;20032;-73
2022/12/24 11:08:12;;;;;;;0.15;0.15;;;12.00;99.90;;;;;;5026916;28;20104;-74
2022/12/24 11:10:41;;;;;;;0.13;0.13;;;12.30;99.90;;;;;;5034633;28;20053;-74
2022/12/24 11:13:22;;;;;;;0.32;0.32;;;12.40;99.90;;;;;;5030261;28;20044;-74
2022/12/24 11:15:57;;;;;;;1.45;0.35;;;12.20;99.90;;;;;;5025126;28;20086;-75
2022/12/24 11:18:23;;;;;;;0.30;0.15;;;;;;;;;;5026740;28;20025;-73
2022/12/24 11:20:52;;;;;;;0.57;0.30;;;12.20;99.90;;;;;;5026445;28;20160;-73
2022/12/24 11:23:18;;;;;;;1.88;0.35;;;12.10;99.90;;;;;;5026794;28;20036;-74
2022/12/24 11:25:49;;;;;;;0.70;0.70;;;12.20;99.90;;;;;;5025151;28;20530;-74
2022/12/24 11:28:27;;;;;;;0.30;0.20;;;12.00;99.90;;;;;;5024404;28;20025;-73
2022/12/24 11:31:04;;;;;;;0.70;0.52;;;;;;;;;;5032476;28;20112;-74
2022/12/24 11:33:31;;;;;;;0.00;0.00;;;;;;;;;;5035093;28;20021;-74
2022/12/24 11:36:01;;;;;;;0.38;0.30;;;;;;;;;;5036898;28;20025;-75
2022/12/24 11:38:28;;;;;;;0.57;0.30;;;;;;;;;;5035916;28;20049;-76
2022/12/24 11:41:02;;;;;;;1.15;0.50;;;;;;;;;;5031198;28;20060;-74
2022/12/24 11:43:43;;;;;;;0.28;0.28;;;;;;;;;;5035353;28;20033;-73
2022/12/24 11:46:16;;;;;;;1.75;0.20;;;12.10;99.90;;;;;;5036431;28;20024;-73
2022/12/24 11:48:42;;;;;;;0.38;0.30;;;;;;;;;;5026403;28;20033;-74
2022/12/24 11:51:23;;;;;;;0.13;0.13;;;12.20;99.90;;;;;;5025557;28;20065;-74
2022/12/24 11:53:50;;;;;;;0.43;0.43;;;12.20;99.90;;;;;;5029188;28;20025;-74
2022/12/24 11:56:44;;;;;;;0.50;0.22;;;12.20;99.90;;;;;;5042817;28;20025;-74
2022/12/24 11:59:39;;;;;;;0.20;0.20;;;12.30;99.90;;;;;;5042759;28;20025;-74
2022/12/24 12:02:16;;;;;;;0.20;0.20;;;12.30;99.90;;;;;;5032707;28;20309;-74
2022/12/24 12:04:45;;;;;;;0.20;0.20;;;12.20;99.90;;;;;;5043039;28;20075;-75
2022/12/24 12:07:13;;;;;;;3.47;0.97;;;12.30;99.90;;;;;;5042962;28;20025;-74
2022/12/24 12:09:44;;;;;;;1.33;0.35;;;12.20;99.90;;;;;;5041920;28;20079;-74
2022/12/24 12:12:22;;;;;;;3.17;0.75;;;12.20;99.90;;;;;;5027925;28;20367;-73
2022/12/24 12:14:59;;;;;;;1.38;0.75;;;12.10;99.90;;;;;;5033744;28;20051;-74
2022/12/24 12:17:43;;;;;;;1.83;0.75;;;12.20;99.90;;;;;;5045438;28;20028;-74
2022/12/24 12:20:33;;;;;;;0.32;0.20;;;11.90;99.90;;;;;;5061214;28;20079;-75
2022/12/24 12:23:30;;;;;;;0.20;0.20;;;11.90;99.90;;;;;;5046631;28;20017;-74
2022/12/24 12:26:01;;;;;;;0.35;0.35;;;;;;;;;;5044511;28;20017;-74
2022/12/24 12:28:34;;;;;;;1.10;0.65;;;12.00;99.90;;;;;;5041465;28;20021;-76
2022/12/24 12:31:09;;;;;;;0.65;0.63;;;;;;;;;;5045152;28;20425;-76
2022/12/24 12:33:40;;;;;;;5.35;0.55;;;;;;;;;;5052814;28;20029;-76
2022/12/24 12:36:09;;;;;;;0.43;0.35;;;11.80;99.90;;;;;;5045764;28;20029;-76
2022/12/24 12:38:35;;;;;;;0.10;0.10;;;;;;;;;;5043361;28;20045;-75
2022/12/24 12:41:05;;;;;;;0.47;0.47;;;;;;;;;;5060115;28;20816;-76
2022/12/24 12:43:58;;;;;;;5.00;0.75;;;11.80;99.90;;;;;;5061334;28;20244;-77
2022/12/24 12:46:59;;;;;;;0.45;0.45;;;11.70;99.90;;;;;;5045595;28;20390;-77
2022/12/24 12:49:37;;;;;;;0.40;0.38;;;;;;;;;;5022947;28;20149;-75
2022/12/24 12:52:45;;;;;;;0.25;0.25;;;11.60;99.90;;;;;;5046995;28;20044;-77
2022/12/24 12:56:00;;;;;;;0.35;0.30;;;11.70;99.90;;;;;;4983670;28;20042;-77
2022/12/24 12:58:40;;;;;;;1.30;0.35;;;11.70;99.90;;;;;;5030018;28;20048;-76
2022/12/24 13:01:26;;;;;;;2.63;1.10;;;11.70;99.90;;;;;;5062804;28;20024;-75
2022/12/24 13:04:10;;;;;;;1.00;0.40;;;11.70;99.90;;;;;;5049273;28;20021;-77
2022/12/24 13:07:01;;;;;;;11.20;4.22;;;11.70;99.90;;;;;;5050036;28;20621;-76
2022/12/24 13:09:59;;;;;;;3.10;0.45;;;11.70;99.90;;;;;;5048310;28;20037;-76
2022/12/24 13:13:03;;;;;;;0.57;0.57;;;11.50;99.90;;;;;;5048885;28;20033;-77
2022/12/24 13:15:42;;;;;;;0.17;0.17;;;11.50;99.90;;;;;;5049480;28;20528;-77
2022/12/24 13:18:32;;;;;;;1.20;0.60;;;11.50;99.90;;;;;;5046966;28;20029;-77
2022/12/24 13:20:58;;;;;;;0.50;0.30;;;;;;;;;;5047007;28;20036;-76
2022/12/24 13:23:26;;;;;;;3.17;0.40;;;11.20;99.90;;;;;;5047339;28;20071;-76
2022/12/24 13:25:54;;;;;;;0.40;0.40;;;11.10;99.90;;;;;;5048980;28;20076;-76
2022/12/24 13:28:20;;;;;;;1.73;0.40;;;;;;;;;;5047641;28;20081;-76
2022/12/24 13:30:46;;;;;;;0.25;0.25;;;;;;;;;;5045856;28;20037;-77
2022/12/24 13:33:33;;;;;;;2.40;0.38;;;11.30;99.90;;;;;;5047013;28;20025;-76
2022/12/24 13:36:09;;;;;;;0.65;0.57;;;11.10;99.90;;;;;;5048333;28;20028;-76
2022/12/24 13:38:53;;;;;;;0.52;0.30;;;11.10;99.90;;;;;;5047139;28;20080;-76
2022/12/24 13:41:30;;;;;;;0.20;0.20;;;11.20;99.90;;;;;;5047945;28;20032;-75
2022/12/24 13:44:05;;;;;;;1.90;0.40;;;11.10;99.90;;;;;;5048546;28;20096;-77
2022/12/24 13:46:56;;;;;;;17.20;6.57;;;11.10;99.90;;;;;;5048205;28;20017;-76
2022/12/24 13:49:25;;;;;;;3.65;0.90;;;11.10;99.90;;;;;;5046915;28;20108;-75